Time;durP1;ratioP1;P1;durP2;ratioP2;P2;SDS_P1;SDS_P2;PMS_P1;PMS_P2;Temp;Humidity;BMP_temperature;BMP_pressure;BME280_temperature;BME280_humidity;BME280_pressure;Samples;Min_cycle;Max_cycle;Signal;HPM_P1;HPM_P2
2022/07/18 00:00:48;;;;;;;3.87;2.40;;;;;;;13.10;53.90;101822.32;1744433;81;21102;-77
2022/07/18 00:03:14;;;;;;;4.97;2.70;;;;;;;13.08;53.92;101816.71;1741391;81;21617;-78
2022/07/18 00:05:40;;;;;;;3.27;2.53;;;;;;;13.04;54.06;101818.47;1744718;81;20987;-77
2022/07/18 00:08:07;;;;;;;3.95;2.75;;;;;;;13.01;54.11;101819.78;1744311;81;20931;-77
2022/07/18 00:10:33;;;;;;;4.22;3.20;;;;;;;12.97;54.24;101820.71;1732828;81;20924;-77
2022/07/18 00:13:00;;;;;;;3.27;2.75;;;;;;;12.99;54.33;101818.11;1728001;82;21506;-77
2022/07/18 00:15:26;;;;;;;5.30;3.22;;;;;;;12.95;54.35;101813.80;1715106;83;21129;-77
2022/07/18 00:17:52;;;;;;;6.37;3.00;;;;;;;12.96;54.48;101812.93;1714722;83;21059;-77
2022/07/18 00:20:18;;;;;;;4.97;2.72;;;;;;;12.97;54.55;101815.52;1727521;82;21265;-77
2022/07/18 00:22:44;;;;;;;5.12;2.70;;;;;;;12.95;54.67;101812.07;1714908;83;21490;-77
2022/07/18 00:25:10;;;;;;;5.37;2.60;;;;;;;12.98;54.76;101808.16;1722006;82;20868;-77
2022/07/18 00:27:36;;;;;;;3.63;2.47;;;;;;;12.96;54.84;101804.70;1727987;81;21046;-77
2022/07/18 00:30:04;;;;;;;4.60;3.27;;;;;;;12.95;54.93;101797.80;1715319;83;20951;-77
2022/07/18 00:32:31;;;;;;;3.60;2.75;;;;;;;12.96;54.97;101802.11;1732429;82;21428;-77
2022/07/18 00:34:57;;;;;;;4.35;2.52;;;;;;;12.98;55.03;101804.70;1746482;81;20932;-78
2022/07/18 00:37:23;;;;;;;3.37;2.70;;;;;;;12.95;55.10;101799.09;1717432;81;21431;-77
2022/07/18 00:39:49;;;;;;;2.73;2.53;;;;;;;12.95;55.19;101805.58;1692847;83;20888;-77
2022/07/18 00:42:15;;;;;;;5.20;2.33;;;;;;;12.96;55.49;101804.70;1707727;81;360761;-77
2022/07/18 00:44:41;;;;;;;4.40;2.47;;;;;;;12.95;55.34;101808.17;1729101;82;21412;-77
2022/07/18 00:47:07;;;;;;;4.23;2.60;;;;;;;12.92;55.43;101805.16;1729396;81;28550;-77
2022/07/18 00:49:34;;;;;;;4.83;3.08;;;;;;;12.89;55.52;101808.22;1732272;81;21732;-77
2022/07/18 00:52:00;;;;;;;5.05;2.80;;;;;;;12.82;55.59;101811.28;1728772;82;21499;-77
2022/07/18 00:54:27;;;;;;;5.70;2.67;;;;;;;12.83;55.69;101809.55;1728962;82;21104;-77
2022/07/18 00:56:53;;;;;;;3.08;2.70;;;;;;;12.83;55.72;101809.55;1731959;81;21068;-77
2022/07/18 00:59:19;;;;;;;4.60;3.13;;;;;;;12.80;55.81;101806.97;1728974;81;21461;-77
2022/07/18 01:01:47;;;;;;;3.25;2.58;;;;;;;12.79;55.87;101810.44;1750187;81;21354;-77
2022/07/18 01:04:21;;;;;;;3.67;2.55;;;;;;;12.78;55.97;101806.12;1742144;81;21044;-77
2022/07/18 01:06:51;;;;;;;4.80;3.08;;;;;;;12.74;56.00;101809.16;1729146;81;21627;-77
2022/07/18 01:09:18;;;;;;;4.92;3.42;;;;;;;12.74;56.10;101816.09;1753755;81;21540;-77
2022/07/18 01:11:45;;;;;;;;;;;;;;;12.74;56.20;101818.25;1756570;81;21036;-78
2022/07/18 01:14:13;;;;;;;3.92;2.92;;;;;;;12.75;56.69;101823.01;1741869;81;20512;-77
2022/07/18 01:16:39;;;;;;;3.30;2.90;;;;;;;12.73;56.30;101819.13;1749397;81;21036;-77
2022/07/18 01:19:06;;;;;;;;;;;;;;;12.75;56.31;101823.01;1757780;81;21076;-78
2022/07/18 01:21:33;;;;;;;4.25;2.80;;;;;;;12.69;57.01;101820.01;1737862;81;20255;-77
2022/07/18 01:23:59;;;;;;;2.70;2.45;;;;;;;12.64;56.47;101824.36;1729050;81;28656;-77
2022/07/18 01:26:27;;;;;;;5.33;2.50;;;;;;;12.63;56.54;101819.17;1728228;81;21553;-77
2022/07/18 01:28:53;;;;;;;4.53;2.72;;;;;;;12.56;56.56;101820.50;1729024;82;21080;-77
2022/07/18 01:31:20;;;;;;;2.58;2.10;;;;;;;12.55;56.63;101823.11;1742513;81;21473;-77
2022/07/18 01:33:49;;;;;;;4.90;2.77;;;;;;;12.52;56.67;101823.98;1728560;82;21044;-77
2022/07/18 01:36:15;;;;;;;2.93;2.60;;;;;;;12.52;56.75;101819.23;1728699;82;21527;-77
2022/07/18 01:38:41;;;;;;;5.03;2.83;;;;;;;12.52;56.79;101818.80;1736362;81;21052;-78
2022/07/18 01:41:08;;;;;;;2.97;2.67;;;;;;;12.49;56.82;101825.73;1735192;81;20926;-77
2022/07/18 01:43:34;;;;;;;4.45;2.47;;;;;;;12.48;56.89;101825.30;1758828;81;21040;-77
2022/07/18 01:46:01;;;;;;;2.55;2.27;;;;;;;12.48;56.92;101819.67;1758514;81;21076;-77
2022/07/18 01:48:27;;;;;;;;;;;;;;;12.41;56.94;101817.15;1741644;81;20874;-77
2022/07/18 01:50:53;;;;;;;7.92;2.12;;;;;;;12.37;57.47;101816.30;1730184;82;20089;-77
2022/07/18 01:53:20;;;;;;;2.00;1.80;;;;;;;12.31;57.04;101818.91;1731784;81;20937;-77
2022/07/18 01:55:47;;;;;;;3.92;2.22;;;;;;;12.24;57.08;101815.91;1730392;81;20897;-77
2022/07/18 01:58:12;;;;;;;;;;;;;;;12.21;57.11;101814.62;1733187;81;20913;-77
2022/07/18 02:00:38;;;;;;;6.57;2.30;;;;;;;12.19;57.52;101819.81;1730305;81;20747;-77
2022/07/18 02:03:05;;;;;;;5.03;2.60;;;;;;;12.18;57.23;101812.91;1730324;82;20925;-77
2022/07/18 02:05:31;;;;;;;5.97;2.90;;;;;;;12.15;57.26;101815.94;1730786;81;20885;-77
2022/07/18 02:08:04;;;;;;;4.00;2.50;;;;;;;12.14;57.32;101814.22;1743497;81;20870;-77
2022/07/18 02:10:30;;;;;;;5.05;3.05;;;;;;;12.16;57.40;101815.08;1730106;82;20858;-77
2022/07/18 02:12:56;;;;;;;3.17;2.77;;;;;;;12.14;57.46;101816.81;1739840;82;20901;-77
2022/07/18 02:15:23;;;;;;;5.77;3.03;;;;;;;12.14;57.52;101816.37;1730348;81;20937;-77
2022/07/18 02:17:49;;;;;;;4.30;2.87;;;;;;;12.15;57.56;101821.98;1730187;82;20924;-77
2022/07/18 02:20:15;;;;;;;4.12;2.77;;;;;;;12.15;57.57;101818.10;1721711;82;20874;-77
2022/07/18 02:22:42;;;;;;;2.50;2.20;;;;;;;12.13;57.61;101823.73;1759867;81;20863;-77
2022/07/18 02:25:10;;;;;;;4.08;2.80;;;;;;;12.08;57.65;101817.69;1744994;81;20847;-77
2022/07/18 02:27:39;;;;;;;5.50;2.75;;;;;;;12.04;57.72;101823.75;1730269;81;20890;-77
2022/07/18 02:30:07;;;;;;;2.77;2.37;;;;;;;12.00;57.81;101825.06;1730453;82;20921;-77
2022/07/18 02:32:36;;;;;;;5.33;2.72;;;;;;;12.02;57.91;101822.03;1715262;81;20902;-77
2022/07/18 02:35:01;;;;;;;3.37;2.60;;;;;;;12.02;57.94;101822.03;1743658;81;20937;-77
2022/07/18 02:37:27;;;;;;;4.83;2.23;;;;;;;11.97;57.95;101818.15;1763747;81;21674;-77
2022/07/18 02:39:53;;;;;;;2.50;1.80;;;;;;;11.96;58.01;101825.50;1752315;81;20873;-77
2022/07/18 02:42:19;;;;;;;2.63;2.43;;;;;;;11.94;58.04;101823.37;1739319;81;21373;-77
2022/07/18 02:44:45;;;;;;;4.60;2.90;;;;;;;11.92;58.16;101823.81;1734912;82;20901;-77
2022/07/18 02:47:11;;;;;;;4.28;2.52;;;;;;;11.94;58.18;101828.56;1744182;81;21398;-77
2022/07/18 02:49:39;;;;;;;5.20;2.53;;;;;;;11.93;58.21;101826.40;1765329;81;20866;-77
2022/07/18 02:52:08;;;;;;;5.33;2.50;;;;;;;11.96;58.24;101823.37;1765406;80;20847;-77
2022/07/18 02:54:37;;;;;;;5.92;2.52;;;;;;;11.93;58.33;101822.52;1755911;81;21516;-77
2022/07/18 02:57:03;;;;;;;5.58;2.92;;;;;;;11.95;58.38;101815.16;1734778;81;20886;-77
2022/07/18 02:59:29;;;;;;;3.60;1.80;;;;;;;11.92;58.41;101823.81;1735037;81;20921;-77
2022/07/18 03:01:56;;;;;;;2.77;2.10;;;;;;;11.90;58.45;101819.06;1718178;82;20898;-77
2022/07/18 03:04:23;;;;;;;6.00;2.70;;;;;;;11.89;58.53;101819.93;1734927;82;21197;-77
2022/07/18 03:06:50;;;;;;;3.98;2.37;;;;;;;11.88;58.57;101814.31;1741255;81;20874;-77
2022/07/18 03:09:18;;;;;;;3.58;2.30;;;;;;;11.85;58.63;101813.89;1765262;80;20924;-78
2022/07/18 03:11:44;;;;;;;2.65;2.37;;;;;;;11.82;58.69;101807.41;1717868;82;20897;-77
2022/07/18 03:14:10;;;;;;;4.55;2.67;;;;;;;11.79;58.69;101807.85;1754301;81;21400;-77
2022/07/18 03:16:36;;;;;;;3.23;2.53;;;;;;;11.78;58.79;101817.78;1765457;81;20926;-77
2022/07/18 03:19:03;;;;;;;3.70;2.37;;;;;;;11.79;58.88;101819.08;1748191;81;20937;-77
2022/07/18 03:21:29;;;;;;;2.47;2.27;;;;;;;11.79;58.93;101815.63;1737226;81;21485;-77
2022/07/18 03:23:55;;;;;;;4.27;2.23;;;;;;;11.81;59.00;101821.23;1734523;82;20854;-77
2022/07/18 03:26:21;;;;;;;4.15;2.58;;;;;;;11.86;59.08;101819.94;1735054;81;20961;-77
2022/07/18 03:28:48;;;;;;;6.33;2.70;;;;;;;11.86;59.11;101823.39;1732712;81;21016;-78
2022/07/18 03:31:15;;;;;;;3.05;2.50;;;;;;;11.87;59.19;101817.34;1733287;82;21051;-77
2022/07/18 03:33:41;;;;;;;3.17;2.70;;;;;;;11.91;59.23;101815.17;1733313;82;21006;-77
2022/07/18 03:36:07;;;;;;;4.20;3.05;;;;;;;11.92;59.28;101822.08;1736956;81;21422;-77
2022/07/18 03:38:33;;;;;;;3.27;2.58;;;;;;;11.98;59.37;101825.49;1756101;81;21078;-78
2022/07/18 03:41:00;;;;;;;4.17;2.70;;;;;;;12.00;59.40;101829.81;1758192;81;21026;-77
2022/07/18 03:43:26;;;;;;;2.90;2.57;;;;;;;12.04;59.46;101832.83;1746317;81;21020;-77
2022/07/18 03:45:52;;;;;;;4.30;2.87;;;;;;;12.07;59.50;101828.93;1739588;81;20858;-77
2022/07/18 03:48:19;;;;;;;6.33;3.08;;;;;;;12.11;59.61;101820.70;1728149;82;21658;-77
2022/07/18 03:50:45;;;;;;;6.20;3.05;;;;;;;12.17;59.64;101823.28;1735134;81;21056;-77
2022/07/18 03:53:11;;;;;;;3.33;2.97;;;;;;;12.17;59.72;101819.39;1728599;82;21069;-77
2022/07/18 03:55:37;;;;;;;4.97;3.35;;;;;;;12.20;59.78;101819.39;1739988;81;21698;-77
2022/07/18 03:58:03;;;;;;;4.65;3.17;;;;;;;12.24;59.90;101818.51;1728971;81;21041;-76
2022/07/18 04:00:29;;;;;;;8.73;3.20;;;;;;;12.33;59.95;101814.59;1745306;81;21833;-76
2022/07/18 04:02:56;;;;;;;6.20;3.35;;;;;;;12.39;60.02;101800.73;1758375;81;21104;-76
2022/07/18 04:05:22;;;;;;;5.45;3.00;;;;;;;12.45;60.10;101799.41;1758481;81;21589;-76
2022/07/18 04:07:52;;;;;;;4.87;3.15;;;;;;;12.54;60.18;101794.14;1758685;81;21025;-76
2022/07/18 04:10:18;;;;;;;4.12;3.42;;;;;;;12.62;60.28;101795.39;1737562;81;20941;-76
2022/07/18 04:12:54;;;;;;;6.50;3.70;;;;;;;12.69;60.37;101801.84;1756089;81;21254;-76
2022/07/18 04:15:24;;;;;;;3.57;3.23;;;;;;;12.79;60.55;101806.55;1760681;81;20874;-76
2022/07/18 04:17:50;;;;;;;4.70;3.67;;;;;;;12.94;60.61;101805.16;1760320;81;20918;-76
2022/07/18 04:22:59;;;;;;;4.53;3.10;;;;;;;13.30;60.74;101807.06;1837851;77;22623;-77
2022/07/18 04:25:28;;;;;;;5.17;3.05;;;;;;;13.42;60.90;101810.86;1815433;79;21374;-77
2022/07/18 04:27:55;;;;;;;4.80;3.25;;;;;;;13.57;60.94;101811.99;1815170;79;21420;-77
2022/07/18 04:30:24;;;;;;;5.87;3.55;;;;;;;13.71;61.03;101814.03;1815742;78;20937;-78
2022/07/18 04:32:51;;;;;;;7.80;3.75;;;;;;;13.88;61.10;101812.56;1815698;78;20854;-78
2022/07/18 04:35:17;;;;;;;5.87;3.47;;;;;;;14.04;61.10;101808.02;1815722;79;20893;-78
2022/07/18 04:37:45;;;;;;;3.65;3.10;;;;;;;14.21;61.10;101810.86;1815856;79;21497;-78
2022/07/18 04:40:13;;;;;;;9.50;3.20;;;;;;;14.37;61.10;101808.94;1815719;79;20912;-78
2022/07/18 04:42:40;;;;;;;4.28;3.17;;;;;;;14.51;61.13;101807.05;1815108;78;20934;-78
2022/07/18 04:45:09;;;;;;;3.92;3.17;;;;;;;14.63;61.16;101805.13;1815512;78;20928;-78
2022/07/18 04:47:35;;;;;;;5.95;3.20;;;;;;;14.75;61.21;101808.44;1815709;79;20933;-78
2022/07/18 04:50:03;;;;;;;4.12;2.55;;;;;;;14.88;61.23;101807.38;1815927;78;21488;-78
2022/07/18 04:52:38;;;;;;;;;;;;;;;15.02;61.26;101807.17;1818470;78;20858;-78
2022/07/18 04:55:08;;;;;;;4.28;3.02;;;;;;;15.19;61.76;101805.58;1814484;79;20102;-78
2022/07/18 04:57:35;;;;;;;5.78;2.45;;;;;;;15.35;61.35;101809.66;1815746;78;20949;-78
2022/07/18 05:00:09;;;;;;;4.80;2.85;;;;;;;15.50;61.33;101808.53;1815882;79;20870;-78
2022/07/18 05:02:35;;;;;;;3.52;2.67;;;;;;;15.62;61.29;101811.38;1782957;80;20937;-78
2022/07/18 05:05:01;;;;;;;4.20;2.42;;;;;;;15.73;61.33;101811.61;1776692;80;20869;-78
2022/07/18 05:07:27;;;;;;;5.45;2.87;;;;;;;15.86;61.37;101813.10;1786705;79;20921;-78
2022/07/18 05:09:53;;;;;;;3.00;2.60;;;;;;;15.98;61.36;101807.23;1812399;79;20847;-78
2022/07/18 05:12:32;;;;;;;4.03;2.22;;;;;;;16.11;61.31;101810.02;1790387;78;20960;-78
2022/07/18 05:14:58;;;;;;;4.10;2.72;;;;;;;16.22;61.30;101811.95;1783725;80;21473;-78
2022/07/18 05:17:24;;;;;;;5.08;2.77;;;;;;;16.33;61.24;101806.51;1803916;79;21208;-78
2022/07/18 05:19:50;;;;;;;3.62;2.20;;;;;;;16.43;61.21;101806.29;1815712;79;20913;-78
2022/07/18 05:22:17;;;;;;;3.87;2.50;;;;;;;16.53;61.18;101809.12;1808619;78;21346;-78
2022/07/18 05:24:43;;;;;;;4.27;2.17;;;;;;;16.65;61.24;101801.91;1804451;79;20902;-78
2022/07/18 05:27:09;;;;;;;2.80;2.07;;;;;;;16.78;61.25;101805.52;1804878;79;20890;-78
2022/07/18 05:29:35;;;;;;;3.73;2.00;;;;;;;16.95;61.27;101804.28;1804537;79;20851;-78
2022/07/18 05:32:02;;;;;;;4.43;2.23;;;;;;;17.27;61.29;101804.34;1804850;79;20843;-78
2022/07/18 05:34:28;;;;;;;4.28;2.00;;;;;;;17.64;61.22;101805.58;1803458;79;20902;-78
2022/07/18 05:36:54;;;;;;;4.07;2.10;;;;;;;17.82;61.11;101805.09;1794793;79;20933;-78
2022/07/18 05:39:20;;;;;;;4.03;2.13;;;;;;;17.92;61.04;101809.63;1802530;79;21025;-78
2022/07/18 05:41:47;;;;;;;3.13;1.73;;;;;;;17.98;60.95;101808.60;1801601;79;20886;-78
2022/07/18 05:44:13;;;;;;;2.27;1.80;;;;;;;18.01;60.92;101811.99;1802277;79;21053;-78
2022/07/18 05:46:39;;;;;;;3.63;2.13;;;;;;;18.03;60.82;101807.58;1802580;79;21053;-78
2022/07/18 05:49:05;;;;;;;4.28;2.17;;;;;;;18.04;60.76;101810.59;1802243;79;21017;-78
2022/07/18 05:51:32;;;;;;;3.33;1.62;;;;;;;18.07;60.71;101807.89;1801950;79;21096;-78
2022/07/18 05:53:58;;;;;;;2.93;1.93;;;;;;;18.08;60.69;101800.45;1771988;79;20941;-78
2022/07/18 05:56:24;;;;;;;7.17;2.08;;;;;;;18.10;60.61;101801.72;1802100;79;21458;-78
2022/07/18 05:58:50;;;;;;;3.20;1.70;;;;;;;18.11;60.58;101802.98;1802153;79;20945;-78
2022/07/18 06:01:19;;;;;;;3.22;1.65;;;;;;;18.14;60.50;101801.59;1796938;79;20915;-78
2022/07/18 06:03:44;;;;;;;4.78;1.85;;;;;;;18.18;60.48;101797.13;1792809;79;20934;-78
2022/07/18 06:06:10;;;;;;;4.20;2.13;;;;;;;18.19;60.44;101798.84;1801918;79;21029;-78
2022/07/18 06:08:36;;;;;;;3.57;2.33;;;;;;;18.23;60.45;101796.95;1801918;79;20962;-78
2022/07/18 06:11:03;;;;;;;4.57;1.87;;;;;;;18.27;60.38;101798.14;1801664;79;20947;-78
2022/07/18 06:13:30;;;;;;;9.15;2.02;;;;;;;18.29;60.33;101795.02;1802121;79;21025;-78
2022/07/18 06:15:56;;;;;;;;;;;;;;;18.33;60.27;101791.41;1804441;79;21085;-78
2022/07/18 06:18:22;;;;;;;2.87;1.97;;;;;;;18.30;60.08;101780.17;1802509;79;20760;-78
2022/07/18 06:20:48;;;;;;;2.30;1.90;;;;;;;18.30;60.08;101780.17;1781388;79;21042;-78
2022/07/18 06:23:15;;;;;;;3.03;1.87;;;;;;;18.45;60.15;101793.67;1795120;79;22024;-78
2022/07/18 06:25:41;;;;;;;3.10;1.83;;;;;;;18.51;60.10;101791.33;1804819;79;21029;-78
2022/07/18 06:28:07;;;;;;;4.63;2.10;;;;;;;18.55;60.01;101796.88;1811439;78;21516;-78
2022/07/18 06:30:33;;;;;;;5.42;2.20;;;;;;;18.59;59.99;101797.19;1810871;79;20922;-78
2022/07/18 06:32:59;;;;;;;3.67;1.80;;;;;;;18.65;59.94;101793.11;1775338;79;21088;-78
2022/07/18 06:35:25;;;;;;;6.40;2.33;;;;;;;18.70;59.90;101793.82;1811231;79;20976;-78
2022/07/18 06:37:51;;;;;;;5.67;2.22;;;;;;;18.80;59.90;101804.84;1810855;78;21489;-78
2022/07/18 06:40:18;;;;;;;3.43;2.03;;;;;;;18.90;59.83;101802.80;1811032;78;20906;-78
2022/07/18 06:42:44;;;;;;;4.70;2.30;;;;;;;19.00;59.74;101807.70;1810108;78;21596;-78
2022/07/18 06:45:14;;;;;;;4.17;1.90;;;;;;;19.10;59.67;101806.95;1773354;80;20992;-78
2022/07/18 06:47:41;;;;;;;4.03;1.67;;;;;;;19.23;59.64;101803.48;1786371;79;21029;-78
2022/07/18 06:50:08;;;;;;;2.30;1.65;;;;;;;19.39;59.67;101799.41;1812843;79;20870;-78
2022/07/18 06:52:34;;;;;;;3.08;1.55;;;;;;;19.61;59.61;101802.20;1807844;79;26831;-79
2022/07/18 06:55:00;;;;;;;7.07;2.13;;;;;;;19.81;59.46;101801.02;1813234;79;20922;-78
2022/07/18 06:57:26;;;;;;;2.87;1.77;;;;;;;19.99;59.34;101796.88;1812623;79;20859;-78
2022/07/18 06:59:53;;;;;;;2.43;1.90;;;;;;;20.23;59.33;101789.87;1813083;78;20937;-79
2022/07/18 07:02:19;;;;;;;;;;;;;;;20.54;59.27;101791.73;1775207;79;20854;-78
2022/07/18 07:04:45;;;;;;;2.50;1.55;;;;;;;20.81;58.49;101788.46;1794384;79;20148;-78
2022/07/18 07:07:12;;;;;;;4.03;1.77;;;;;;;20.90;58.93;101784.15;1780787;79;21001;-78
2022/07/18 07:09:38;;;;;;;3.43;1.60;;;;;;;20.96;58.84;101783.90;1811311;78;20886;-78
2022/07/18 07:12:05;;;;;;;3.62;1.87;;;;;;;21.02;58.72;101784.11;1810452;78;21001;-78
2022/07/18 07:14:32;;;;;;;4.77;1.60;;;;;;;21.06;58.60;101781.30;1811333;78;21033;-78
2022/07/18 07:16:58;;;;;;;3.27;1.92;;;;;;;21.12;58.58;101782.36;1811406;78;21166;-78
2022/07/18 07:19:25;;;;;;;5.30;2.10;;;;;;;21.33;58.49;101780.61;1810851;79;21539;-78
2022/07/18 07:21:51;;;;;;;3.20;1.27;;;;;;;21.58;58.44;101776.94;1778118;79;21000;-78
2022/07/18 07:24:17;;;;;;;3.50;1.70;;;;;;;21.90;58.23;101784.25;1813397;78;21549;-78
2022/07/18 07:26:44;;;;;;;3.50;1.40;;;;;;;22.05;58.01;101784.92;1812471;79;21504;-78
2022/07/18 07:29:11;;;;;;;2.93;2.00;;;;;;;22.10;57.81;101788.66;1813149;78;21016;-78
2022/07/18 07:31:37;;;;;;;4.10;1.35;;;;;;;22.12;57.69;101788.12;1810789;78;21322;-78
2022/07/18 07:34:09;;;;;;;3.95;1.70;;;;;;;22.16;57.57;101784.44;1810048;78;21572;-78
2022/07/18 07:36:36;;;;;;;5.47;1.98;;;;;;;22.23;57.37;101781.05;1810109;78;21596;-78
2022/07/18 07:39:03;;;;;;;3.70;1.90;;;;;;;22.31;57.29;101781.56;1807027;78;20962;-78
2022/07/18 07:41:29;;;;;;;4.03;2.50;;;;;;;22.37;57.12;101782.56;1807946;79;21500;-78
2022/07/18 07:43:55;;;;;;;2.33;1.40;;;;;;;22.45;56.94;101784.38;1810025;79;21016;-79
2022/07/18 07:46:22;;;;;;;4.78;1.90;;;;;;;22.66;56.94;101787.78;1810268;79;21512;-78
2022/07/18 07:49:03;;;;;;;2.33;1.50;;;;;;;23.18;56.80;101783.47;1809219;78;20965;-78
2022/07/18 07:51:29;;;;;;;4.95;1.87;;;;;;;23.80;56.62;101780.72;1810331;78;21061;-78
2022/07/18 07:53:55;;;;;;;4.25;1.77;;;;;;;24.33;56.25;101776.52;1810323;79;21504;-78
2022/07/18 07:56:23;;;;;;;4.00;1.62;;;;;;;25.26;55.43;101775.61;1810020;79;21405;-78
2022/07/18 07:58:49;;;;;;;3.72;1.75;;;;;;;25.26;55.43;101775.61;1809759;79;21043;-78
2022/07/18 08:01:19;;;;;;;2.43;1.53;;;;;;;25.52;55.35;101778.85;1810180;78;20961;-78
2022/07/18 08:03:46;;;;;;;4.72;1.50;;;;;;;25.64;55.00;101775.50;1811152;79;21351;-78
2022/07/18 08:06:12;;;;;;;4.12;1.70;;;;;;;25.80;54.93;101772.77;1811953;78;21315;-78
2022/07/18 08:08:38;;;;;;;3.92;1.57;;;;;;;25.99;54.54;101777.79;1811740;79;21407;-78
2022/07/18 08:11:06;;;;;;;3.80;1.50;;;;;;;26.17;54.05;101773.95;1805316;79;20894;-78
2022/07/18 08:13:33;;;;;;;1.85;1.40;;;;;;;26.36;53.91;101772.36;1779786;80;21679;-78
2022/07/18 08:16:02;;;;;;;2.67;1.60;;;;;;;26.53;53.57;101769.44;1779708;80;21373;-78
2022/07/18 08:18:28;;;;;;;2.10;1.40;;;;;;;26.67;53.17;101770.73;1789293;79;21469;-78
2022/07/18 08:20:54;;;;;;;3.67;1.60;;;;;;;26.65;52.52;101769.13;1809964;78;20859;-79
2022/07/18 08:23:21;;;;;;;3.00;1.22;;;;;;;26.60;52.50;101772.55;1806390;78;21529;-78
2022/07/18 08:25:47;;;;;;;3.60;1.30;;;;;;;26.69;52.31;101767.50;1801493;79;21001;-78
2022/07/18 08:28:20;;;;;;;1.62;1.05;;;;;;;26.84;51.87;101762.98;1723724;80;21493;-78
2022/07/18 08:30:46;;;;;;;2.72;1.75;;;;;;;27.00;51.52;101758.41;1742455;82;21060;-78
2022/07/18 08:33:12;;;;;;;3.27;1.60;;;;;;;27.22;51.18;101759.58;1752864;79;21488;-78
2022/07/18 08:35:45;;;;;;;4.33;1.50;;;;;;;27.36;50.71;101759.02;1771567;79;21022;-78
2022/07/18 08:38:12;;;;;;;4.20;1.40;;;;;;;27.32;50.15;101758.86;1771267;80;21541;-78
2022/07/18 08:40:38;;;;;;;1.90;1.32;;;;;;;27.22;50.02;101761.77;1769311;79;21549;-78
2022/07/18 08:43:07;;;;;;;2.58;1.40;;;;;;;27.12;49.73;101760.68;1741934;82;21421;-78
2022/07/18 08:45:33;;;;;;;3.08;1.42;;;;;;;27.02;49.17;101755.64;1741580;79;21563;-78
2022/07/18 08:48:00;;;;;;;3.25;1.17;;;;;;;26.86;49.01;101757.10;1742314;80;21470;-78
2022/07/18 08:50:26;;;;;;;2.47;1.27;;;;;;;26.79;48.86;101758.94;1776568;79;21540;-78
2022/07/18 08:52:53;;;;;;;5.25;1.35;;;;;;;26.66;48.38;101758.89;1771861;79;21111;-78
2022/07/18 08:55:19;;;;;;;5.22;1.40;;;;;;;26.47;47.97;101753.95;1771170;79;21040;-78
2022/07/18 08:57:45;;;;;;;4.50;1.12;;;;;;;26.23;47.74;101761.64;1778374;80;21555;-78
2022/07/18 09:00:12;;;;;;;3.20;1.50;;;;;;;26.16;47.55;101761.66;1778446;80;20897;-78
2022/07/18 09:02:38;;;;;;;2.92;1.30;;;;;;;26.13;47.26;101755.21;1772291;79;21449;-78
2022/07/18 09:05:10;;;;;;;2.20;1.20;;;;;;;26.08;46.95;101754.66;1810413;79;20953;-78
2022/07/18 09:07:35;;;;;;;6.00;1.20;;;;;;;26.06;46.75;101751.25;1807300;79;21593;-78
2022/07/18 09:10:07;;;;;;;4.93;1.47;;;;;;;26.06;46.54;101749.92;1777127;79;20897;-78
2022/07/18 09:12:33;;;;;;;5.83;1.80;;;;;;;26.03;46.30;101746.98;1779671;80;20929;-78
2022/07/18 09:15:08;;;;;;;3.33;1.13;;;;;;;26.05;46.04;101747.74;1737244;81;20886;-78
2022/07/18 09:17:35;;;;;;;2.80;1.10;;;;;;;26.06;45.90;101745.94;1778298;79;20929;-78
2022/07/18 09:20:14;;;;;;;3.72;1.02;;;;;;;26.10;45.72;101746.60;1805195;79;21596;-78
2022/07/18 09:22:44;;;;;;;4.28;1.22;;;;;;;26.18;45.58;101748.30;1807294;79;21326;-78
2022/07/18 09:25:14;;;;;;;4.00;1.30;;;;;;;26.22;45.45;101748.00;1783738;79;20922;-78
2022/07/18 09:27:44;;;;;;;3.62;1.40;;;;;;;26.20;45.15;101749.91;1809916;79;20984;-78
2022/07/18 09:30:24;;;;;;;3.33;1.30;;;;;;;26.24;45.15;101743.93;1809075;79;21025;-78
2022/07/18 09:33:08;;;;;;;2.17;1.07;;;;;;;26.29;44.86;101741.84;1807048;79;21029;-78
2022/07/18 09:35:53;;;;;;;4.10;1.40;;;;;;;26.23;44.50;101740.91;1807268;79;20965;-78
2022/07/18 09:38:22;;;;;;;4.47;0.90;;;;;;;26.13;44.41;101728.70;1809998;78;21500;-78
2022/07/18 09:40:51;;;;;;;3.22;1.17;;;;;;;26.10;44.15;101732.02;1809277;79;21431;-78
2022/07/18 09:43:21;;;;;;;2.85;1.35;;;;;;;26.05;44.13;101732.31;1806986;79;21492;-78
2022/07/18 09:45:54;;;;;;;3.45;1.50;;;;;;;26.01;43.98;101739.60;1810168;79;21084;-78
2022/07/18 09:48:24;;;;;;;1.47;1.10;;;;;;;25.94;43.67;101730.84;1810083;78;20973;-78
2022/07/18 09:51:01;;;;;;;2.50;1.30;;;;;;;25.85;43.56;101730.94;1777653;79;21061;-78
2022/07/18 09:53:33;;;;;;;2.55;1.42;;;;;;;25.71;43.44;101738.41;1779169;79;21407;-78
2022/07/18 09:56:13;;;;;;;11.00;1.40;;;;;;;25.58;43.32;101728.63;1809672;79;21037;-78
2022/07/18 09:58:57;;;;;;;3.55;1.50;;;;;;;25.57;43.27;101735.72;1811019;79;20996;-78
2022/07/18 10:01:23;;;;;;;5.40;1.30;;;;;;;25.56;43.06;101734.49;1809986;78;21042;-78
2022/07/18 10:03:51;;;;;;;4.08;1.77;;;;;;;25.54;43.01;101731.94;1810075;78;21037;-78
2022/07/18 10:06:18;;;;;;;2.25;1.55;;;;;;;25.54;42.86;101731.94;1786684;78;20977;-78
2022/07/18 10:08:45;;;;;;;3.12;1.40;;;;;;;25.57;42.90;101730.42;1810945;79;20910;-78
2022/07/18 10:11:11;;;;;;;4.10;1.50;;;;;;;25.55;42.25;101733.64;1802810;78;21039;-78
2022/07/18 10:13:38;;;;;;;2.37;1.40;;;;;;;25.40;42.36;101727.98;1778174;80;21088;-78
2022/07/18 10:16:05;;;;;;;2.33;1.42;;;;;;;25.31;42.33;101723.23;1779707;80;20921;-78
2022/07/18 10:18:38;;;;;;;3.00;1.45;;;;;;;25.18;42.21;101729.73;1795359;79;20917;-78
2022/07/18 10:21:11;;;;;;;2.37;1.30;;;;;;;25.04;42.30;101712.48;1811697;78;20894;-78
2022/07/18 10:23:44;;;;;;;2.83;1.60;;;;;;;25.19;42.26;101724.81;1801005;78;22155;-78
2022/07/18 10:26:14;;;;;;;3.05;1.47;;;;;;;25.24;42.13;101737.78;1790495;79;20907;-78
2022/07/18 10:29:05;;;;;;;4.58;1.50;;;;;;;25.26;41.97;101730.60;1790754;80;20898;-78
2022/07/18 10:31:37;;;;;;;1.42;1.20;;;;;;;25.22;41.85;101721.98;1785491;79;20840;-78
2022/07/18 10:34:12;;;;;;;4.60;1.60;;;;;;;25.20;41.82;101716.41;1734274;82;20876;-78
2022/07/18 10:36:54;;;;;;;2.67;1.25;;;;;;;25.23;41.78;101718.87;1729374;82;20907;-78
2022/07/18 10:39:36;;;;;;;2.30;1.37;;;;;;;25.28;41.65;101724.73;1727859;82;20903;-78
2022/07/18 10:42:13;;;;;;;3.33;1.52;;;;;;;25.30;41.58;101726.35;1728914;83;20911;-78
2022/07/18 10:44:40;;;;;;;2.05;1.32;;;;;;;25.32;41.40;101724.47;1729036;83;20903;-78
2022/07/18 10:47:20;;;;;;;;;;;;;;;25.33;41.34;101725.32;1731986;83;21399;-78
2022/07/18 10:49:52;;;;;;;3.58;1.92;;;;;;;25.39;41.28;101732.42;1729251;82;20092;-78
2022/07/18 10:52:32;;;;;;;3.12;1.50;;;;;;;25.43;41.26;101719.84;1729386;83;20927;-78
2022/07/18 10:57:41;;;;;;;3.10;1.32;;;;;;;25.51;41.13;101712.26;1699721;83;20983;-78
2022/07/18 11:00:18;;;;;;;3.12;1.70;;;;;;;25.59;41.13;101721.91;1698952;84;21065;-78
2022/07/18 11:02:48;;;;;;;2.83;1.50;;;;;;;25.57;40.67;101706.59;1700362;83;21113;-78
2022/07/18 11:05:28;;;;;;;2.12;1.42;;;;;;;25.61;40.51;101706.77;1728381;81;22152;-78
2022/07/18 11:08:17;;;;;;;5.87;1.50;;;;;;;25.65;40.71;101712.77;1702785;81;21509;-78
2022/07/18 11:10:51;;;;;;;2.87;1.52;;;;;;;25.65;40.71;101712.77;1716000;83;21081;-78
2022/07/18 11:13:38;;;;;;;1.67;1.10;;;;;;;25.67;40.55;101705.58;1735834;81;21062;-78
2022/07/18 11:16:10;;;;;;;2.30;1.32;;;;;;;25.71;40.53;101697.82;1735180;81;20962;-78
2022/07/18 11:18:50;;;;;;;2.98;1.30;;;;;;;25.61;40.04;101672.81;1727470;82;21101;-78
2022/07/18 11:21:26;;;;;;;3.90;1.35;;;;;;;25.61;40.04;101672.81;1727540;83;21085;-78
2022/07/18 11:23:55;;;;;;;;;;;;;;;25.71;40.27;101692.52;1731617;82;21017;-78
2022/07/18 11:26:23;;;;;;;3.90;1.40;;;;;;;25.75;40.13;101683.91;1733699;82;20206;-78
2022/07/18 11:29:03;;;;;;;4.05;1.52;;;;;;;25.79;40.18;101686.75;1740126;82;20930;-78
2022/07/18 11:31:31;;;;;;;3.15;1.47;;;;;;;25.74;40.27;101661.86;1739323;81;21040;-78
2022/07/18 11:34:01;;;;;;;2.00;1.10;;;;;;;25.76;39.58;101664.41;1772257;80;20900;-78
2022/07/18 11:36:32;;;;;;;4.97;1.95;;;;;;;25.76;39.58;101664.41;1770931;80;21021;-78